createdAt,value
2018-05-09T00:00:01.860Z,39.01
2018-05-09T00:02:34.424Z,38.89
2018-05-09T00:03:34.594Z,38.91
2018-05-09T00:04:34.768Z,38.34
2018-05-09T00:05:34.927Z,38.43
2018-05-09T00:06:35.093Z,37.95
2018-05-09T00:07:35.261Z,37.16
2018-05-09T00:08:35.425Z,36.02
2018-05-09T00:09:35.595Z,35.53
2018-05-09T00:10:35.760Z,36.30
2018-05-09T00:11:35.928Z,34.87
2018-05-09T00:14:08.577Z,35.16
2018-05-09T00:15:08.747Z,34.48
2018-05-09T00:16:08.912Z,35.92
2018-05-09T00:17:09.094Z,35.53
2018-05-09T00:18:09.283Z,34.96
2018-05-09T00:19:09.466Z,36.40
2018-05-09T00:20:09.607Z,36.98
2018-05-09T00:21:09.783Z,35.92
2018-05-09T00:22:09.933Z,36.59
2018-05-09T00:23:10.106Z,37.26
2018-05-09T00:24:10.257Z,37.93
2018-05-09T00:25:10.412Z,37.74
2018-05-09T00:26:10.592Z,37.65
2018-05-09T00:27:10.765Z,36.88
2018-05-09T00:28:10.915Z,35.16
2018-05-09T00:30:53.218Z,28.72
2018-05-09T00:31:53.408Z,26.81
2018-05-09T00:32:53.552Z,28.72
2018-05-09T00:33:53.719Z,25.85
2018-05-09T00:34:53.887Z,25.37
2018-05-09T00:35:54.049Z,25.66
2018-05-09T00:36:54.222Z,23.46
2018-05-09T00:37:54.378Z,24.03
2018-05-09T00:38:54.560Z,23.93
2018-05-09T00:39:54.708Z,23.84
2018-05-09T00:42:26.979Z,22.40
2018-05-09T00:43:27.142Z,21.35
2018-05-09T00:44:27.310Z,21.64
2018-05-09T00:45:27.478Z,20.78
2018-05-09T00:46:28.514Z,19.82
2018-05-09T00:47:27.822Z,18.38
2018-05-09T00:48:27.983Z,17.80
2018-05-09T00:49:28.153Z,18.00
2018-05-09T00:50:28.319Z,17.14
2018-05-09T00:51:28.490Z,17.71
2018-05-09T00:52:29.014Z,16.75
2018-05-09T00:53:28.754Z,18.00
2018-05-09T00:54:28.922Z,17.43
2018-05-09T00:55:29.092Z,17.80
2018-05-09T00:56:29.251Z,17.14
2018-05-09T00:59:01.555Z,15.89
2018-05-09T01:00:01.713Z,14.06
2018-05-09T01:01:01.895Z,14.16
2018-05-09T01:02:02.055Z,13.20
2018-05-09T01:03:02.219Z,13.30
2018-05-09T01:04:02.399Z,12.92
2018-05-09T01:05:02.550Z,12.15
2018-05-09T01:06:02.716Z,11.29
2018-05-09T01:07:02.885Z,10.24
2018-05-09T01:08:03.051Z,10.14
2018-05-09T01:09:03.214Z,9.47
2018-05-09T01:10:03.386Z,8.99
2018-05-09T01:11:03.552Z,9.09
2018-05-09T01:12:03.718Z,9.56
2018-05-09T01:13:03.874Z,9.56
2018-05-09T01:15:46.708Z,9.09
2018-05-09T01:16:46.340Z,9.95
2018-05-09T01:17:46.502Z,9.09
2018-05-09T01:18:57.643Z,9.19
2018-05-09T01:19:48.694Z,9.66
2018-05-09T01:20:47.699Z,9.19
2018-05-09T01:21:47.119Z,9.76
2018-05-09T01:22:47.283Z,9.28
2018-05-09T01:23:47.445Z,9.76
2018-05-09T01:24:54.200Z,9.09
2018-05-09T01:27:39.352Z,7.27
2018-05-09T01:28:42.709Z,8.23
2018-05-09T01:29:34.481Z,8.42
2018-05-09T01:30:34.633Z,9.09
2018-05-09T01:31:36.402Z,8.80
2018-05-09T01:32:34.930Z,8.33
2018-05-09T01:33:35.095Z,8.13
2018-05-09T01:34:35.913Z,8.23
2018-05-09T01:35:35.488Z,8.42
2018-05-09T01:36:35.659Z,8.22
2018-05-09T01:37:35.826Z,8.42
2018-05-09T01:38:35.988Z,6.70
2018-05-09T01:39:36.156Z,6.60
2018-05-09T01:40:36.320Z,6.70
2018-05-09T01:41:36.486Z,6.12
2018-05-09T01:44:19.067Z,5.16
2018-05-09T01:45:19.233Z,5.45
2018-05-09T01:46:19.398Z,4.49
2018-05-09T01:47:19.563Z,4.30
2018-05-09T01:48:19.731Z,4.02
2018-05-09T01:49:19.896Z,3.44
2018-05-09T01:50:20.059Z,2.96
2018-05-09T01:51:20.227Z,2.67
2018-05-09T01:52:20.394Z,2.39
2018-05-09T01:53:20.559Z,1.81
2018-05-09T01:54:20.722Z,1.91
2018-05-09T01:55:20.891Z,1.34
2018-05-09T01:56:21.065Z,1.53
2018-05-09T01:57:21.226Z,1.43
2018-05-09T01:58:21.392Z,2.10
2018-05-09T02:01:03.657Z,1.62
2018-05-09T02:02:03.896Z,2.67
2018-05-09T02:03:03.988Z,2.87
2018-05-09T02:04:04.154Z,2.77
2018-05-09T02:05:04.320Z,2.77
2018-05-09T02:06:04.585Z,2.77
2018-05-09T02:07:04.649Z,1.53
2018-05-09T02:08:04.815Z,2.20
2018-05-09T02:09:04.982Z,1.81
2018-05-09T02:10:05.147Z,2.10
2018-05-09T02:11:05.314Z,1.05
2018-05-09T02:12:05.478Z,0.38
2018-05-09T02:13:05.647Z,0.19
2018-05-09T02:14:05.812Z,0.57
2018-05-09T02:15:05.977Z,0.00
2018-05-09T02:17:48.236Z,0.00
2018-05-09T02:18:48.402Z,0.00
2018-05-09T02:19:48.567Z,0.00
2018-05-09T02:20:48.732Z,0.00
2018-05-09T02:21:48.895Z,0.00
2018-05-09T02:22:49.069Z,0.00
2018-05-09T02:24:00.109Z,0.00
2018-05-09T02:24:49.423Z,0.00
2018-05-09T02:25:49.589Z,0.00
2018-05-09T02:26:51.301Z,0.00
2018-05-09T02:28:08.901Z,0.00
2018-05-09T02:28:50.156Z,0.00
2018-05-09T02:29:50.305Z,0.00
2018-05-09T02:30:50.498Z,0.00
2018-05-09T02:31:50.650Z,0.00
2018-05-09T02:32:53.815Z,0.00
2018-05-09T02:33:51.814Z,0.00
2018-05-09T02:34:57.810Z,0.00
2018-05-09T02:35:51.226Z,0.00
2018-05-09T02:36:51.392Z,0.00
2018-05-09T02:37:51.559Z,0.00
2018-05-09T02:40:38.350Z,0.00
2018-05-09T02:41:38.855Z,0.00
2018-05-09T02:42:37.144Z,0.00
2018-05-09T02:43:41.967Z,0.00
2018-05-09T02:44:37.515Z,0.00
2018-05-09T02:45:37.675Z,0.00
2018-05-09T02:46:37.840Z,0.00
2018-05-09T02:47:38.004Z,0.00
2018-05-09T02:48:38.863Z,0.00
2018-05-09T02:49:38.304Z,0.00
2018-05-09T02:50:38.438Z,0.00
2018-05-09T02:51:38.598Z,0.00
2018-05-09T02:52:39.360Z,0.00
2018-05-09T02:53:58.133Z,0.00
2018-05-09T02:54:39.033Z,0.00
2018-05-09T02:55:40.880Z,0.00
2018-05-09T02:56:46.640Z,0.00
2018-05-09T02:57:39.527Z,0.00
2018-05-09T02:58:39.678Z,0.00
2018-05-09T02:59:39.847Z,0.00
2018-05-09T03:00:40.015Z,0.00
2018-05-09T03:01:40.180Z,0.00
2018-05-09T03:02:40.337Z,0.00
2018-05-09T03:03:40.508Z,0.00
2018-05-09T03:04:40.679Z,0.00
2018-05-09T03:05:40.846Z,0.00
2018-05-09T03:06:41.003Z,0.00
2018-05-09T03:09:16.106Z,0.00
2018-05-09T03:10:16.263Z,0.00
2018-05-09T03:11:16.428Z,0.00
2018-05-09T03:12:16.596Z,0.00
2018-05-09T03:13:17.336Z,0.00
2018-05-09T03:14:24.885Z,0.00
2018-05-09T03:15:17.156Z,0.00
2018-05-09T03:16:17.319Z,0.00
2018-05-09T03:17:17.485Z,0.00
2018-05-09T03:18:17.649Z,0.00
2018-05-09T03:19:17.815Z,0.00
2018-05-09T03:20:18.008Z,0.00
2018-05-09T03:21:18.148Z,0.00
2018-05-09T03:22:18.824Z,0.00
2018-05-09T03:23:18.487Z,0.00
2018-05-09T03:26:00.744Z,0.00
2018-05-09T03:27:00.911Z,0.00
2018-05-09T03:28:01.077Z,0.00
2018-05-09T03:29:01.241Z,0.00
2018-05-09T03:30:01.407Z,0.00
2018-05-09T03:31:01.573Z,0.00
2018-05-09T03:32:01.735Z,0.00
2018-05-09T03:33:01.902Z,0.00
2018-05-09T03:34:02.064Z,0.00
2018-05-09T03:35:02.227Z,0.00
2018-05-09T03:36:02.393Z,0.00
2018-05-09T03:37:02.559Z,0.00
2018-05-09T03:38:02.725Z,0.00
2018-05-09T03:39:02.890Z,0.00
2018-05-09T03:40:03.057Z,0.00
2018-05-09T03:42:45.613Z,0.00
2018-05-09T03:43:45.779Z,0.00
2018-05-09T03:44:45.944Z,0.00
2018-05-09T03:45:46.110Z,0.00
2018-05-09T03:46:50.969Z,0.00
2018-05-09T03:47:46.431Z,0.00
2018-05-09T03:48:46.596Z,0.00
2018-05-09T03:49:46.758Z,0.00
2018-05-09T03:50:46.922Z,0.00
2018-05-09T03:51:47.092Z,0.00
2018-05-09T03:52:49.904Z,0.00
2018-05-09T03:53:48.357Z,0.00
2018-05-09T03:54:48.360Z,0.00
2018-05-09T03:55:47.663Z,0.00
2018-05-09T03:56:47.827Z,0.00
2018-05-09T03:59:20.115Z,0.00
2018-05-09T04:00:20.303Z,0.00
2018-05-09T04:01:20.439Z,0.00
2018-05-09T04:02:20.608Z,0.00
2018-05-09T04:03:20.814Z,0.00
2018-05-09T04:04:20.878Z,0.00
2018-05-09T04:05:21.053Z,0.00
2018-05-09T04:06:21.209Z,0.00
2018-05-09T04:07:21.382Z,0.00
2018-05-09T04:08:21.537Z,0.00
2018-05-09T04:09:21.706Z,0.00
2018-05-09T04:10:21.867Z,0.00
2018-05-09T04:11:22.037Z,0.00
2018-05-09T04:12:22.211Z,0.00
2018-05-09T04:13:22.381Z,0.00
2018-05-09T04:15:55.789Z,0.00
2018-05-09T04:16:55.953Z,0.00
2018-05-09T04:17:56.133Z,0.00
2018-05-09T04:18:56.315Z,0.00
2018-05-09T04:19:57.180Z,0.00
2018-05-09T04:20:56.592Z,0.00
2018-05-09T04:21:56.770Z,0.00
2018-05-09T04:22:56.926Z,0.00
2018-05-09T04:23:58.685Z,0.00
2018-05-09T04:24:57.209Z,0.00
2018-05-09T04:27:50.255Z,0.00
2018-05-09T04:28:50.411Z,0.00
2018-05-09T04:29:50.596Z,0.00
2018-05-09T04:30:50.742Z,0.00
2018-05-09T04:31:50.922Z,0.00
2018-05-09T04:32:51.081Z,0.00
2018-05-09T04:33:51.239Z,0.00
2018-05-09T04:34:51.404Z,0.00
2018-05-09T04:35:51.575Z,0.00
2018-05-09T04:36:51.737Z,0.00
2018-05-09T04:37:52.128Z,0.00
2018-05-09T04:38:52.020Z,0.00
2018-05-09T04:39:52.179Z,0.00
2018-05-09T04:40:52.363Z,0.00
2018-05-09T04:41:52.617Z,0.00
2018-05-09T04:44:25.095Z,0.00
2018-05-09T04:45:25.264Z,0.00
2018-05-09T04:46:25.450Z,0.00
2018-05-09T04:47:25.587Z,0.00
2018-05-09T04:48:25.764Z,0.00
2018-05-09T04:49:25.929Z,0.00
2018-05-09T04:50:26.098Z,0.00
2018-05-09T04:51:26.269Z,0.00
2018-05-09T04:52:26.432Z,0.00
2018-05-09T04:53:26.587Z,0.00
2018-05-09T04:54:26.755Z,0.00
2018-05-09T04:55:27.021Z,0.00
2018-05-09T04:56:27.090Z,0.00
2018-05-09T04:57:27.835Z,0.00
2018-05-09T04:58:27.392Z,0.00
2018-05-09T05:01:17.711Z,0.00
2018-05-09T05:02:09.779Z,0.00
2018-05-09T05:03:09.965Z,0.00
2018-05-09T05:04:10.176Z,0.00
2018-05-09T05:05:10.334Z,0.00
2018-05-09T05:06:10.497Z,0.00
2018-05-09T05:07:10.671Z,0.00
2018-05-09T05:08:10.830Z,0.00
2018-05-09T05:09:13.876Z,0.00
2018-05-09T05:10:11.219Z,0.00
2018-05-09T05:12:43.932Z,0.00
2018-05-09T05:13:44.100Z,0.00
2018-05-09T05:14:44.279Z,0.00
2018-05-09T05:15:44.463Z,0.00
2018-05-09T05:16:44.587Z,0.00
2018-05-09T05:17:45.673Z,0.00
2018-05-09T05:18:44.980Z,0.00
2018-05-09T05:19:45.142Z,0.00
2018-05-09T05:20:45.309Z,0.00
2018-05-09T05:21:45.474Z,0.00
2018-05-09T05:22:53.591Z,0.00
2018-05-09T05:23:45.751Z,0.00
2018-05-09T05:24:45.966Z,0.00
2018-05-09T05:25:47.037Z,0.00
2018-05-09T05:26:46.340Z,0.00
2018-05-09T05:27:46.491Z,0.00
2018-05-09T05:28:46.666Z,0.00
2018-05-09T05:29:46.852Z,0.00
2018-05-09T05:30:47.062Z,0.00
2018-05-09T05:31:48.034Z,0.00
2018-05-09T05:32:48.082Z,0.00
2018-05-09T05:35:29.856Z,0.00
2018-05-09T05:36:30.006Z,0.00
2018-05-09T05:37:30.171Z,0.00
2018-05-09T05:38:30.336Z,0.00
2018-05-09T05:39:37.956Z,0.00
2018-05-09T05:40:30.614Z,0.00
2018-05-09T05:41:30.783Z,0.00
2018-05-09T05:42:30.945Z,1.53
2018-05-09T05:43:38.274Z,0.00
2018-05-09T05:44:31.312Z,2.97
2018-05-09T05:45:31.513Z,0.67
2018-05-09T05:46:31.640Z,0.48
2018-05-09T05:47:31.819Z,0.00
2018-05-09T05:48:31.985Z,0.86
2018-05-09T05:49:32.157Z,1.91
2018-05-09T05:50:32.316Z,3.44
2018-05-09T05:51:32.490Z,10.72
2018-05-09T05:52:32.656Z,19.93
2018-05-09T05:53:32.820Z,25.70
2018-05-09T05:54:32.984Z,32.31
2018-05-09T05:55:33.154Z,37.51
2018-05-09T05:56:33.312Z,45.98
2018-05-09T05:57:33.485Z,53.75
2018-05-09T06:00:15.742Z,60.78
2018-05-09T06:01:23.869Z,60.98
2018-05-09T06:02:16.810Z,61.55
2018-05-09T06:03:16.225Z,60.98
2018-05-09T06:04:16.401Z,55.67
2018-05-09T06:05:16.566Z,56.63
2018-05-09T06:06:16.733Z,55.67
2018-05-09T06:07:16.901Z,60.75
2018-05-09T06:08:17.070Z,62.32
2018-05-09T06:09:17.240Z,62.32
2018-05-09T06:10:17.406Z,64.63
2018-05-09T06:11:17.567Z,65.40
2018-05-09T06:12:25.399Z,68.70
2018-05-09T06:13:18.001Z,69.66
2018-05-09T06:14:18.092Z,70.14
2018-05-09T06:15:21.934Z,72.16
2018-05-09T06:16:26.351Z,72.64
2018-05-09T06:17:20.486Z,73.25
2018-05-09T06:18:18.687Z,73.44
2018-05-09T06:19:18.846Z,75.27
2018-05-09T06:20:19.007Z,77.81
2018-05-09T06:21:20.805Z,77.23
2018-05-09T06:23:51.559Z,75.40
2018-05-09T06:24:51.651Z,77.51
2018-05-09T06:25:51.804Z,78.38
2018-05-09T06:26:51.971Z,78.28
2018-05-09T06:27:52.149Z,77.04
2018-05-09T06:28:52.314Z,75.31
2018-05-09T06:29:52.480Z,74.82
2018-05-09T06:30:52.736Z,74.15
2018-05-09T06:31:52.819Z,76.26
2018-05-09T06:32:52.981Z,76.65
2018-05-09T06:34:01.523Z,76.36
2018-05-09T06:35:03.054Z,74.79
2018-05-09T06:39:25.879Z,72.67
2018-05-09T06:40:25.549Z,73.57
2018-05-09T06:41:25.714Z,74.92
2018-05-09T06:42:25.885Z,73.09
2018-05-09T06:43:34.009Z,74.44
2018-05-09T06:44:26.171Z,73.67
2018-05-09T06:45:26.346Z,75.79
2018-05-09T06:46:26.509Z,75.54
2018-05-09T06:47:26.674Z,77.65
2018-05-09T06:48:26.851Z,76.40
2018-05-09T06:49:27.029Z,75.34
2018-05-09T06:50:27.216Z,78.23
2018-05-09T06:51:27.392Z,76.40
2018-05-09T06:52:27.562Z,75.63
2018-05-09T06:53:27.738Z,76.40
2018-05-09T06:54:27.951Z,77.71
2018-05-09T06:55:28.085Z,76.69
2018-05-09T06:56:28.255Z,76.69
2018-05-09T06:57:38.921Z,78.81
2018-05-09T06:58:28.580Z,79.28
2018-05-09T06:59:28.748Z,78.03
2018-05-09T07:00:28.916Z,78.71
2018-05-09T07:01:29.086Z,82.17
2018-05-09T07:02:29.251Z,80.19
2018-05-09T07:03:29.420Z,82.37
2018-05-09T07:04:29.589Z,79.13
2018-05-09T07:05:29.809Z,80.35
2018-05-09T07:06:30.096Z,79.96
2018-05-09T07:07:30.084Z,81.70
2018-05-09T07:10:12.417Z,72.90
2018-05-09T07:11:12.883Z,73.38
2018-05-09T07:12:12.823Z,76.94
2018-05-09T07:13:12.998Z,79.00
2018-05-09T07:14:13.881Z,77.71
2018-05-09T07:15:13.886Z,79.86
2018-05-09T07:16:13.430Z,78.52
2018-05-09T07:17:13.596Z,77.33
2018-05-09T07:18:14.097Z,75.11
2018-05-09T07:19:13.966Z,75.79
2018-05-09T07:21:56.232Z,74.05
2018-05-09T07:22:56.400Z,73.19
2018-05-09T07:23:56.569Z,71.08
2018-05-09T07:24:56.738Z,73.38
2018-05-09T07:25:56.910Z,73.00
2018-05-09T07:27:05.040Z,72.13
2018-05-09T07:27:57.206Z,73.09
2018-05-09T07:28:57.376Z,72.13
2018-05-09T07:29:57.540Z,74.29
2018-05-09T07:30:57.715Z,74.19
2018-05-09T07:31:57.878Z,73.51
2018-05-09T07:32:58.047Z,76.40
2018-05-09T07:33:58.217Z,75.38
2018-05-09T07:34:58.384Z,80.87
2018-05-09T07:35:58.556Z,78.85
2018-05-09T07:36:58.716Z,82.70
2018-05-09T07:37:58.909Z,83.12
2018-05-09T07:39:01.787Z,87.46
2018-05-09T07:39:59.202Z,85.53
2018-05-09T07:40:59.369Z,87.07
2018-05-09T07:41:59.541Z,89.19
2018-05-09T07:44:42.103Z,89.53
2018-05-09T07:45:42.282Z,86.82
2018-05-09T07:46:42.445Z,88.95
2018-05-09T07:47:42.631Z,90.63
2018-05-09T07:48:42.780Z,91.69
2018-05-09T07:49:42.950Z,90.82
2018-05-09T07:50:43.119Z,90.34
2018-05-09T07:51:43.290Z,90.82
2018-05-09T07:52:43.462Z,89.86
2018-05-09T07:53:43.631Z,89.57
2018-05-09T07:54:43.802Z,88.41
2018-05-09T07:55:43.976Z,90.63
2018-05-09T07:56:44.155Z,89.57
2018-05-09T07:57:44.311Z,88.41
2018-05-09T07:58:44.487Z,89.61
2018-05-09T08:01:27.114Z,90.43
2018-05-09T08:02:27.289Z,91.01
2018-05-09T08:03:27.458Z,90.91
2018-05-09T08:04:27.627Z,91.39
2018-05-09T08:05:27.794Z,91.49
2018-05-09T08:06:27.965Z,91.11
2018-05-09T08:07:28.134Z,90.95
2018-05-09T08:08:28.301Z,91.05
2018-05-09T08:09:28.498Z,90.95
2018-05-09T08:10:28.635Z,91.44
2018-05-09T08:11:28.806Z,91.97
2018-05-09T08:12:28.978Z,91.11
2018-05-09T08:13:29.177Z,91.01
2018-05-09T08:14:29.319Z,91.49
2018-05-09T08:15:29.492Z,91.20
2018-05-09T08:18:11.763Z,91.53
2018-05-09T08:19:11.960Z,91.25
2018-05-09T08:20:12.129Z,91.11
2018-05-09T08:21:12.314Z,91.49
2018-05-09T08:22:12.485Z,91.30
2018-05-09T08:23:12.655Z,91.15
2018-05-09T08:24:12.838Z,91.15
2018-05-09T08:25:12.986Z,91.35
2018-05-09T08:26:13.155Z,90.47
2018-05-09T08:27:13.329Z,91.05
2018-05-09T08:29:45.887Z,90.61
2018-05-09T08:30:46.096Z,90.81
2018-05-09T08:31:46.228Z,90.37
2018-05-09T08:32:46.404Z,90.08
2018-05-09T08:33:46.572Z,89.50
2018-05-09T08:34:46.744Z,89.89
2018-05-09T08:35:46.914Z,78.81
2018-05-09T08:36:47.187Z,79.39
2018-05-09T08:37:47.251Z,80.84
2018-05-09T08:38:47.408Z,73.97
2018-05-09T08:39:47.621Z,75.91
2018-05-09T08:40:47.761Z,74.17
2018-05-09T08:41:47.926Z,73.10
2018-05-09T08:42:48.095Z,68.27
2018-05-09T08:43:48.348Z,64.40
2018-05-09T08:46:30.834Z,77.88
2018-05-09T08:47:31.006Z,75.56
2018-05-09T08:48:31.179Z,78.27
2018-05-09T08:49:31.340Z,78.66
2018-05-09T08:50:31.508Z,75.98
2018-05-09T08:51:31.689Z,73.57
2018-05-09T08:52:31.853Z,74.24
2018-05-09T08:53:32.038Z,63.46
2018-05-09T08:54:32.195Z,66.56
2018-05-09T08:55:32.395Z,71.01
2018-05-09T08:56:32.537Z,74.88
2018-05-09T08:57:32.713Z,72.46
2018-05-09T08:58:32.886Z,73.33
2018-05-09T08:59:33.072Z,71.78
2018-05-09T09:00:36.368Z,78.36
2018-05-09T09:03:05.592Z,71.59
2018-05-09T09:04:05.816Z,73.14
2018-05-09T09:05:05.950Z,68.91
2018-05-09T09:06:06.122Z,64.66
2018-05-09T09:07:06.293Z,67.85
2018-05-09T09:08:06.462Z,63.43
2018-05-09T09:09:06.632Z,71.95
2018-05-09T09:10:06.816Z,57.14
2018-05-09T09:11:14.940Z,55.20
2018-05-09T09:12:07.101Z,57.23
2018-05-09T09:13:07.283Z,58.07
2018-05-09T09:14:07.456Z,59.53
2018-05-09T09:15:07.626Z,59.53
2018-05-09T09:16:07.797Z,61.08
2018-05-09T09:17:07.969Z,62.92
2018-05-09T09:18:08.139Z,61.95
2018-05-09T09:19:08.310Z,61.85
2018-05-09T09:20:08.480Z,53.33
2018-05-09T09:21:08.656Z,50.07
2018-05-09T09:22:08.822Z,46.94
2018-05-09T09:23:08.999Z,45.22
2018-05-09T09:24:09.171Z,45.13
2018-05-09T09:25:09.342Z,45.40
2018-05-09T09:26:09.519Z,45.42
2018-05-09T09:28:43.132Z,44.16
2018-05-09T09:29:43.301Z,44.72
2018-05-09T09:30:43.475Z,44.26
2018-05-09T09:31:43.651Z,44.45
2018-05-09T09:32:43.817Z,43.96
2018-05-09T09:33:43.988Z,44.64
2018-05-09T09:34:44.156Z,44.06
2018-05-09T09:35:44.328Z,43.87
2018-05-09T09:36:44.502Z,44.16
2018-05-09T09:37:44.673Z,45.42
2018-05-09T09:38:44.844Z,45.42
2018-05-09T09:39:45.015Z,45.51
2018-05-09T09:40:45.188Z,45.03
2018-05-09T09:41:45.357Z,44.54
2018-05-09T09:42:53.204Z,44.84
2018-05-09T09:43:45.823Z,44.06
2018-05-09T09:44:45.890Z,44.45
2018-05-09T09:45:53.217Z,44.35
2018-05-09T09:46:46.264Z,44.16
2018-05-09T09:47:46.435Z,44.26
2018-05-09T09:48:46.605Z,44.04
2018-05-09T09:49:46.789Z,44.62
2018-05-09T09:50:47.054Z,44.91
2018-05-09T09:51:54.307Z,45.03
2018-05-09T09:52:47.414Z,44.45
2018-05-09T09:53:47.454Z,44.54
2018-05-09T09:54:47.659Z,44.18
2018-05-09T09:55:47.803Z,43.48
2018-05-09T09:56:47.966Z,43.41
2018-05-09T09:57:48.132Z,43.21
2018-05-09T09:58:48.302Z,43.31
2018-05-09T09:59:48.475Z,42.63
2018-05-09T10:00:48.645Z,43.50
2018-05-09T10:01:48.818Z,42.72
2018-05-09T10:02:48.990Z,42.14
2018-05-09T10:03:57.099Z,42.82
2018-05-09T10:04:49.274Z,43.12
2018-05-09T10:05:49.446Z,43.02
2018-05-09T10:06:49.618Z,42.82
2018-05-09T10:07:49.787Z,43.31
2018-05-09T10:08:49.956Z,42.85
2018-05-09T10:09:50.127Z,42.82
2018-05-09T10:10:50.306Z,43.50
2018-05-09T10:11:50.521Z,44.47
2018-05-09T10:12:50.699Z,43.31
2018-05-09T10:13:58.753Z,42.72
2018-05-09T10:14:50.930Z,42.05
2018-05-09T10:15:54.970Z,42.72
2018-05-09T10:16:51.231Z,42.54
2018-05-09T10:17:51.428Z,42.34
2018-05-09T10:18:51.604Z,42.54
2018-05-09T10:19:51.771Z,42.34
2018-05-09T10:20:51.952Z,42.05
2018-05-09T10:21:52.189Z,42.14
2018-05-09T10:22:52.295Z,42.54
2018-05-09T10:23:52.465Z,42.44
2018-05-09T10:26:27.249Z,42.94
2018-05-09T10:27:34.596Z,42.85
2018-05-09T10:28:27.639Z,43.23
2018-05-09T10:29:27.808Z,43.31
2018-05-09T10:30:27.980Z,43.13
2018-05-09T10:31:28.188Z,43.41
2018-05-09T10:32:28.319Z,43.33
2018-05-09T10:33:28.488Z,43.99
2018-05-09T10:34:28.661Z,44.27
2018-05-09T10:35:28.843Z,44.18
2018-05-09T10:36:36.475Z,44.18
2018-05-09T10:37:29.141Z,44.37
2018-05-09T10:38:29.309Z,44.47
2018-05-09T10:39:29.483Z,44.37
2018-05-09T10:40:29.659Z,44.27
2018-05-09T10:41:29.827Z,45.15
2018-05-09T10:42:29.999Z,45.83
2018-05-09T10:43:30.170Z,44.67
2018-05-09T10:44:30.339Z,44.57
2018-05-09T10:45:30.511Z,44.45
2018-05-09T10:46:30.697Z,44.16
2018-05-09T10:47:30.870Z,45.03
2018-05-09T10:48:38.960Z,45.13
2018-05-09T10:49:31.249Z,45.03
2018-05-09T10:50:31.445Z,44.16
2018-05-09T10:51:31.616Z,44.27
2018-05-09T10:52:31.794Z,43.96
2018-05-09T10:53:31.970Z,43.70
2018-05-09T10:54:32.141Z,44.37
2018-05-09T10:55:32.301Z,44.96
2018-05-09T10:56:32.535Z,45.05
2018-05-09T10:57:32.740Z,44.67
2018-05-09T10:58:33.005Z,44.57
2018-05-09T10:59:40.626Z,44.18
2018-05-09T11:00:33.133Z,44.10
2018-05-09T11:01:33.305Z,43.43
2018-05-09T11:02:33.478Z,43.99
2018-05-09T11:03:33.659Z,44.09
2018-05-09T11:04:33.846Z,44.09
2018-05-09T11:05:34.059Z,43.99
2018-05-09T11:06:34.264Z,43.72
2018-05-09T11:07:34.569Z,43.70
2018-05-09T11:08:34.687Z,43.50
2018-05-09T11:09:34.850Z,44.57
2018-05-09T11:10:43.198Z,45.05
2018-05-09T11:11:35.036Z,44.59
2018-05-09T11:12:35.326Z,43.50
2018-05-09T11:13:35.447Z,44.67
2018-05-09T11:14:35.666Z,44.57
2018-05-09T11:15:35.889Z,44.18
2018-05-09T11:16:36.187Z,44.47
2018-05-09T11:17:36.292Z,43.52
2018-05-09T11:18:36.524Z,43.13
2018-05-09T11:19:43.801Z,43.23
2018-05-09T11:20:36.730Z,43.52
2018-05-09T11:21:37.043Z,43.04
2018-05-09T11:22:37.130Z,42.75
2018-05-09T11:23:37.489Z,42.75
2018-05-09T11:24:37.443Z,43.52
2018-05-09T11:25:37.600Z,43.41
2018-05-09T11:26:37.779Z,44.10
2018-05-09T11:27:37.956Z,44.27
2018-05-09T11:28:38.146Z,44.18
2018-05-09T11:29:38.375Z,43.31
2018-05-09T11:30:47.368Z,43.41
2018-05-09T11:31:38.528Z,44.18
2018-05-09T11:32:39.437Z,44.67
2018-05-09T11:33:38.856Z,45.25
2018-05-09T11:34:39.030Z,45.44
2018-05-09T11:35:39.206Z,43.99
2018-05-09T11:36:39.942Z,44.37
2018-05-09T11:37:39.491Z,43.99
2018-05-09T11:38:39.653Z,43.99
2018-05-09T11:39:39.820Z,57.75
2018-05-09T11:40:40.956Z,48.66
2018-05-09T11:41:40.812Z,44.30
2018-05-09T11:42:48.039Z,43.21
2018-05-09T11:43:40.479Z,43.41
2018-05-09T11:44:40.781Z,43.41
2018-05-09T11:45:41.046Z,43.12
2018-05-09T11:46:40.966Z,43.33
2018-05-09T11:47:41.139Z,42.65
2018-05-09T11:48:41.311Z,42.44
2018-05-09T11:49:41.526Z,43.04
2018-05-09T11:50:41.686Z,43.50
2018-05-09T11:51:41.847Z,44.76
2018-05-09T11:52:42.892Z,44.57
2018-05-09T11:53:50.571Z,44.57
2018-05-09T11:54:42.479Z,44.96
2018-05-09T11:55:42.586Z,45.54
2018-05-09T11:56:42.696Z,44.67
2018-05-09T11:57:42.878Z,45.25
2018-05-09T11:58:43.039Z,45.64
2018-05-09T11:59:43.994Z,45.64
2018-05-09T12:00:43.404Z,46.60
2018-05-09T12:01:43.610Z,45.73
2018-05-09T12:02:43.777Z,44.37
2018-05-09T12:03:43.948Z,45.42
2018-05-09T12:04:44.119Z,45.51
2018-05-09T12:05:44.282Z,46.02
2018-05-09T12:06:44.457Z,46.39
2018-05-09T12:07:44.627Z,46.12
2018-05-09T12:08:44.801Z,45.44
2018-05-09T12:11:17.077Z,44.30
2018-05-09T12:12:17.246Z,44.30
2018-05-09T12:13:17.419Z,46.82
2018-05-09T12:14:17.587Z,44.20
2018-05-09T12:15:17.758Z,44.20
2018-05-09T12:16:17.931Z,44.40
2018-05-09T12:17:18.101Z,45.00
2018-05-09T12:18:25.468Z,44.30
2018-05-09T12:19:18.396Z,44.98
2018-05-09T12:20:18.747Z,48.08
2018-05-09T12:21:18.783Z,50.79
2018-05-09T12:22:19.672Z,46.72
2018-05-09T12:23:19.088Z,45.44
2018-05-09T12:24:19.251Z,45.44
2018-05-09T12:25:26.619Z,68.50
2018-05-09T12:26:19.648Z,47.20
2018-05-09T12:27:20.675Z,44.68
2018-05-09T12:28:19.974Z,43.43
2018-05-09T12:29:20.153Z,42.85
2018-05-09T12:30:20.323Z,41.58
2018-05-09T12:31:20.505Z,41.20
2018-05-09T12:32:20.679Z,40.61
2018-05-09T12:33:20.841Z,41.58
2018-05-09T12:34:21.007Z,42.75
2018-05-09T12:35:21.183Z,42.75
2018-05-09T12:36:21.390Z,42.65
2018-05-09T12:37:21.513Z,43.50
2018-05-09T12:38:21.688Z,43.41
2018-05-09T12:39:22.675Z,43.72
2018-05-09T12:42:04.100Z,52.73
2018-05-09T12:43:04.256Z,47.62
2018-05-09T12:44:04.443Z,43.64
2018-05-09T12:45:04.608Z,43.45
2018-05-09T12:46:05.611Z,43.47
2018-05-09T12:47:04.918Z,43.57
2018-05-09T12:48:12.654Z,44.44
2018-05-09T12:49:05.184Z,42.40
2018-05-09T12:50:05.373Z,42.09
2018-05-09T12:51:05.537Z,41.02
2018-05-09T12:52:13.881Z,41.70
2018-05-09T12:53:05.980Z,41.61
2018-05-09T12:54:06.161Z,41.02
2018-05-09T12:55:06.331Z,41.51
2018-05-09T12:56:06.518Z,40.92
2018-05-09T12:57:06.727Z,40.64
2018-05-09T12:58:06.930Z,41.61
2018-05-09T12:59:06.984Z,40.64
2018-05-09T13:00:07.201Z,39.98
2018-05-09T13:01:07.344Z,39.86
2018-05-09T13:02:07.534Z,39.98
2018-05-09T13:03:07.688Z,40.73
2018-05-09T13:04:07.859Z,40.56
2018-05-09T13:05:08.035Z,42.89
2018-05-09T13:06:08.206Z,40.66
2018-05-09T13:08:40.486Z,40.54
2018-05-09T13:09:40.661Z,40.95
2018-05-09T13:10:40.834Z,40.95
2018-05-09T13:11:41.519Z,41.22
2018-05-09T13:12:41.187Z,42.77
2018-05-09T13:13:41.358Z,43.93
2018-05-09T13:14:41.526Z,43.54
2018-05-09T13:15:41.707Z,44.01
2018-05-09T13:16:41.883Z,44.51
2018-05-09T13:17:42.078Z,44.59
2018-05-09T13:18:42.248Z,44.78
2018-05-09T13:19:42.449Z,44.20
2018-05-09T13:20:42.591Z,45.75
2018-05-09T13:21:42.760Z,45.56
2018-05-09T13:22:42.934Z,44.49
2018-05-09T13:25:15.238Z,42.57
2018-05-09T13:26:15.391Z,42.77
2018-05-09T13:27:15.612Z,43.16
2018-05-09T13:28:23.550Z,42.89
2018-05-09T13:29:15.973Z,49.77
2018-05-09T13:30:16.136Z,47.55
2018-05-09T13:31:16.309Z,43.76
2018-05-09T13:32:16.480Z,43.66
2018-05-09T13:33:16.657Z,44.34
2018-05-09T13:34:16.826Z,47.93
2018-05-09T13:35:16.998Z,47.45
2018-05-09T13:36:17.176Z,48.61
2018-05-09T13:37:17.341Z,49.85
2018-05-09T13:38:17.519Z,49.66
2018-05-09T13:39:17.686Z,49.95
2018-05-09T13:40:25.811Z,50.53
2018-05-09T13:41:17.977Z,51.98
2018-05-09T13:42:18.147Z,52.86
2018-05-09T13:43:25.488Z,54.02
2018-05-09T13:44:18.537Z,54.09
2018-05-09T13:45:18.702Z,54.19
2018-05-09T13:46:18.888Z,56.03
2018-05-09T13:47:19.038Z,55.44
2018-05-09T13:48:19.208Z,55.16
2018-05-09T13:49:20.303Z,56.23
2018-05-09T13:50:27.055Z,56.03
2018-05-09T13:51:20.325Z,55.44
2018-05-09T13:52:19.868Z,55.93
2018-05-09T13:53:20.037Z,55.77
2018-05-09T13:54:20.868Z,54.70
2018-05-09T13:55:20.395Z,55.57
2018-05-09T13:56:20.570Z,58.48
2018-05-09T13:57:20.746Z,54.11
2018-05-09T13:58:20.933Z,55.47
2018-05-09T13:59:21.124Z,55.47
2018-05-09T14:00:21.291Z,53.37
2018-05-09T14:01:30.396Z,52.20
2018-05-09T14:02:21.646Z,52.69
2018-05-09T14:03:21.812Z,52.78
2018-05-09T14:04:22.022Z,52.30
2018-05-09T14:05:22.162Z,52.08
2018-05-09T14:06:22.335Z,52.86